createdAt,value
2019-01-14T00:00:31.615Z,6.70
2019-01-14T00:02:59.424Z,6.70
2019-01-14T00:05:27.195Z,6.70
2019-01-14T00:07:55.082Z,6.70
2019-01-14T00:10:22.921Z,6.60
2019-01-14T00:12:50.748Z,6.60
2019-01-14T00:15:18.524Z,6.50
2019-01-14T00:17:46.326Z,6.40
2019-01-14T00:20:14.556Z,6.40
2019-01-14T00:22:42.387Z,6.30
2019-01-14T00:25:10.231Z,6.30
2019-01-14T00:27:38.055Z,6.40
2019-01-14T00:30:10.252Z,6.30
2019-01-14T00:32:38.067Z,6.30
2019-01-14T00:35:07.633Z,6.30
2019-01-14T00:37:35.428Z,6.30
2019-01-14T00:40:05.349Z,6.20
2019-01-14T00:42:33.277Z,6.20
2019-01-14T00:45:01.117Z,6.00
2019-01-14T00:47:28.904Z,6.20
2019-01-14T00:49:56.693Z,6.30
2019-01-14T00:52:24.488Z,6.30
2019-01-14T00:54:52.285Z,6.30
2019-01-14T00:57:20.077Z,6.40
2019-01-14T00:59:47.954Z,6.40
2019-01-14T01:02:15.739Z,6.30
2019-01-14T01:04:43.508Z,6.40
2019-01-14T01:07:11.428Z,6.50
2019-01-14T01:09:39.232Z,6.50
2019-01-14T01:12:07.892Z,6.50
2019-01-14T01:14:35.700Z,6.50
2019-01-14T01:17:03.593Z,6.60
2019-01-14T01:19:31.390Z,6.60
2019-01-14T01:21:59.257Z,6.60
2019-01-14T01:24:27.054Z,6.70
2019-01-14T01:26:54.925Z,6.60
2019-01-14T01:29:22.944Z,6.30
2019-01-14T01:31:50.703Z,6.70
2019-01-14T01:34:18.488Z,7.00
2019-01-14T01:36:51.506Z,6.70
2019-01-14T01:39:19.384Z,6.70
2019-01-14T01:41:47.216Z,6.80
2019-01-14T01:44:15.045Z,6.70
2019-01-14T01:46:42.871Z,6.70
2019-01-14T01:49:10.683Z,6.70
2019-01-14T01:51:38.484Z,6.20
2019-01-14T01:54:06.271Z,6.60
2019-01-14T01:56:34.401Z,6.60
2019-01-14T01:59:02.224Z,6.60
2019-01-14T02:01:29.974Z,6.60
2019-01-14T02:03:57.813Z,6.50
2019-01-14T02:06:25.616Z,6.60
2019-01-14T02:08:54.467Z,6.60
2019-01-14T02:11:22.232Z,6.60
2019-01-14T02:13:50.144Z,6.60
2019-01-14T02:16:18.460Z,6.60
2019-01-14T02:18:46.922Z,6.50
2019-01-14T02:21:14.950Z,6.50
2019-01-14T02:23:43.543Z,6.10
2019-01-14T02:26:11.703Z,6.50
2019-01-14T02:28:39.882Z,6.40
2019-01-14T02:31:08.017Z,6.40
2019-01-14T02:33:36.288Z,6.40
2019-01-14T02:36:04.837Z,6.40
2019-01-14T02:38:33.156Z,6.50
2019-01-14T02:41:01.293Z,6.40
2019-01-14T02:43:29.608Z,6.40
2019-01-14T02:45:57.796Z,6.30
2019-01-14T02:48:26.035Z,6.30
2019-01-14T02:50:54.426Z,6.30
2019-01-14T02:53:22.764Z,6.30
2019-01-14T02:55:50.959Z,6.20
2019-01-14T02:58:19.257Z,6.20
2019-01-14T03:00:47.484Z,6.20
2019-01-14T03:03:15.768Z,6.20
2019-01-14T03:05:44.039Z,6.10
2019-01-14T03:08:16.956Z,6.20
2019-01-14T03:10:44.725Z,6.10
2019-01-14T03:13:12.507Z,6.10
2019-01-14T03:15:40.283Z,6.10
2019-01-14T03:18:08.062Z,6.10
2019-01-14T03:20:35.789Z,6.10
2019-01-14T03:23:03.568Z,6.10
2019-01-14T03:25:31.350Z,6.20
2019-01-14T03:28:04.320Z,6.10
2019-01-14T03:30:32.071Z,6.10
2019-01-14T03:32:59.858Z,6.10
2019-01-14T03:35:27.691Z,6.00
2019-01-14T03:37:55.445Z,6.00
2019-01-14T03:40:23.945Z,6.00
2019-01-14T03:42:51.731Z,6.00
2019-01-14T03:45:19.551Z,6.00
2019-01-14T03:47:47.557Z,6.00
2019-01-14T03:50:21.688Z,6.10
2019-01-14T03:52:49.594Z,6.10
2019-01-14T03:55:17.372Z,6.10
2019-01-14T03:57:45.190Z,6.00
2019-01-14T04:00:15.998Z,6.00
2019-01-14T04:02:43.833Z,6.00
2019-01-14T04:05:11.662Z,6.00
2019-01-14T04:07:39.536Z,6.10
2019-01-14T04:10:13.088Z,6.10
2019-01-14T04:12:40.865Z,6.10
2019-01-14T04:15:10.496Z,6.20
2019-01-14T04:17:57.730Z,6.20
2019-01-14T04:20:25.492Z,6.20
2019-01-14T04:22:53.247Z,6.30
2019-01-14T04:25:21.104Z,6.30
2019-01-14T04:27:49.046Z,6.20
2019-01-14T04:30:22.550Z,6.20
2019-01-14T04:32:50.991Z,6.20
2019-01-14T04:35:20.764Z,6.30
2019-01-14T04:37:48.703Z,6.30
2019-01-14T04:40:16.826Z,6.30
2019-01-14T04:42:45.068Z,6.40
2019-01-14T04:45:13.194Z,6.10
2019-01-14T04:47:41.011Z,6.10
2019-01-14T04:50:12.700Z,6.00
2019-01-14T04:52:40.507Z,6.00
2019-01-14T04:55:10.906Z,6.00
2019-01-14T04:57:39.128Z,5.90
2019-01-14T05:00:14.486Z,5.90
2019-01-14T05:02:42.386Z,5.90
2019-01-14T05:05:10.278Z,5.90
2019-01-14T05:08:08.960Z,6.00
2019-01-14T05:10:56.159Z,5.90
2019-01-14T05:13:23.985Z,6.80
2019-01-14T05:15:51.760Z,5.70
2019-01-14T05:18:19.796Z,5.70
2019-01-14T05:20:49.636Z,5.60
2019-01-14T05:23:17.420Z,5.60
2019-01-14T05:25:45.181Z,5.50
2019-01-14T05:28:12.966Z,5.50
2019-01-14T05:30:40.754Z,5.40
2019-01-14T05:33:08.976Z,5.30
2019-01-14T05:35:36.816Z,4.70
2019-01-14T05:38:04.618Z,5.10
2019-01-14T05:40:32.396Z,5.10
2019-01-14T05:43:00.190Z,5.20
2019-01-14T05:45:28.011Z,5.00
2019-01-14T05:47:58.865Z,5.00
2019-01-14T05:50:26.616Z,5.10
2019-01-14T05:52:54.439Z,5.10
2019-01-14T05:55:26.889Z,5.10
2019-01-14T05:57:59.823Z,5.00
2019-01-14T06:00:52.860Z,5.00
2019-01-14T06:03:20.768Z,4.90
2019-01-14T06:05:48.542Z,4.80
2019-01-14T06:08:16.358Z,4.70
2019-01-14T06:10:44.188Z,4.60
2019-01-14T06:13:11.941Z,4.50
2019-01-14T06:15:39.797Z,4.40
2019-01-14T06:18:07.689Z,4.30
2019-01-14T06:20:35.515Z,4.20
2019-01-14T06:23:03.439Z,4.10
2019-01-14T06:25:31.292Z,4.10
2019-01-14T06:28:14.913Z,4.10
2019-01-14T06:30:54.857Z,4.10
2019-01-14T06:33:22.671Z,4.10
2019-01-14T06:35:50.746Z,4.10
2019-01-14T06:38:18.732Z,4.20
2019-01-14T06:40:46.503Z,4.30
2019-01-14T06:43:14.304Z,4.50
2019-01-14T06:45:42.101Z,4.50
2019-01-14T06:48:20.293Z,4.50
2019-01-14T06:50:48.129Z,4.60
2019-01-14T06:53:15.944Z,4.60
2019-01-14T06:55:43.771Z,4.70
2019-01-14T06:58:31.286Z,4.70
2019-01-14T07:00:59.068Z,4.70
2019-01-14T07:03:26.924Z,4.70
2019-01-14T07:05:54.759Z,4.60
2019-01-14T07:08:22.524Z,4.90
2019-01-14T07:10:51.726Z,4.70
2019-01-14T07:13:19.568Z,4.80
2019-01-14T07:15:47.341Z,5.30
2019-01-14T07:18:15.174Z,5.00
2019-01-14T07:20:43.001Z,5.00
2019-01-14T07:23:10.833Z,5.00
2019-01-14T07:25:38.660Z,5.00
2019-01-14T07:28:16.705Z,5.10
2019-01-14T07:30:44.527Z,5.20
2019-01-14T07:33:12.306Z,5.10
2019-01-14T07:35:40.130Z,5.20
2019-01-14T07:38:07.935Z,5.10
2019-01-14T07:40:35.745Z,5.20
2019-01-14T07:43:03.604Z,5.30
2019-01-14T07:45:31.413Z,5.30
2019-01-14T07:47:59.238Z,5.40
2019-01-14T07:50:27.129Z,5.40
2019-01-14T07:52:54.869Z,5.50
2019-01-14T07:55:22.681Z,5.50
2019-01-14T07:57:55.727Z,5.50
2019-01-14T08:00:25.629Z,5.50
2019-01-14T08:02:53.912Z,5.50
2019-01-14T08:05:41.195Z,5.60
2019-01-14T08:08:14.421Z,6.30
2019-01-14T08:10:42.347Z,5.70
2019-01-14T08:13:10.165Z,5.70
2019-01-14T08:15:37.947Z,5.70
2019-01-14T08:18:20.869Z,5.70
2019-01-14T08:20:48.702Z,5.80
2019-01-14T08:23:16.484Z,5.80
2019-01-14T08:25:44.269Z,5.80
2019-01-14T08:28:12.069Z,5.80
2019-01-14T08:30:39.866Z,6.20
2019-01-14T08:33:07.610Z,5.90
2019-01-14T08:35:35.514Z,6.40
2019-01-14T08:38:21.263Z,5.90
2019-01-14T08:41:08.103Z,5.90
2019-01-14T08:43:37.420Z,6.20
2019-01-14T08:46:05.306Z,5.70
2019-01-14T08:48:33.147Z,5.80
2019-01-14T08:51:00.950Z,5.70
2019-01-14T08:53:29.960Z,5.70
2019-01-14T08:55:57.730Z,5.70
2019-01-14T08:58:25.475Z,5.80
2019-01-14T09:00:53.247Z,5.80
2019-01-14T09:03:21.058Z,5.70
2019-01-14T09:05:48.846Z,5.70
2019-01-14T09:08:28.510Z,5.70
2019-01-14T09:10:51.395Z,5.80
2019-01-14T09:13:19.160Z,5.80
2019-01-14T09:15:47.418Z,5.70
2019-01-14T09:18:17.097Z,5.70
2019-01-14T09:20:44.896Z,5.70
2019-01-14T09:23:12.734Z,5.70
2019-01-14T09:25:40.494Z,5.70
2019-01-14T09:28:08.334Z,6.10
2019-01-14T09:30:36.185Z,5.80
2019-01-14T09:33:04.076Z,5.80
2019-01-14T09:35:31.893Z,5.80
2019-01-14T09:37:59.705Z,5.80
2019-01-14T09:40:27.519Z,5.90
2019-01-14T09:42:55.316Z,6.00
2019-01-14T09:45:23.258Z,6.00
2019-01-14T09:48:06.125Z,6.20
2019-01-14T09:50:33.907Z,6.00
2019-01-14T09:53:01.739Z,6.30
2019-01-14T09:55:29.567Z,6.20
2019-01-14T09:57:57.368Z,6.30
2019-01-14T10:00:25.191Z,6.40
2019-01-14T10:02:55.525Z,6.50
2019-01-14T10:05:22.648Z,6.50
2019-01-14T10:07:50.533Z,6.40
2019-01-14T10:10:19.342Z,6.40
2019-01-14T10:12:47.098Z,6.50
2019-01-14T10:15:20.793Z,6.30
2019-01-14T10:18:04.588Z,6.30
2019-01-14T10:20:32.457Z,6.10
2019-01-14T10:23:19.722Z,6.10
2019-01-14T10:25:47.616Z,6.50
2019-01-14T10:28:17.729Z,6.10
2019-01-14T10:30:45.591Z,5.90
2019-01-14T10:33:13.365Z,5.90
2019-01-14T10:35:41.207Z,6.10
2019-01-14T10:38:08.984Z,6.20
2019-01-14T10:40:36.790Z,6.20
2019-01-14T10:43:04.658Z,6.20
2019-01-14T10:45:33.227Z,6.00
2019-01-14T10:48:01.133Z,5.90
2019-01-14T10:50:29.519Z,5.90
2019-01-14T10:52:57.290Z,5.80
2019-01-14T10:55:25.081Z,5.90
2019-01-14T10:57:52.965Z,5.90
2019-01-14T11:00:24.269Z,6.20
2019-01-14T11:02:52.766Z,6.10
2019-01-14T11:05:25.049Z,6.30
2019-01-14T11:07:52.945Z,6.50
2019-01-14T11:10:20.925Z,6.40
2019-01-14T11:12:48.715Z,6.40
2019-01-14T11:15:16.596Z,6.70
2019-01-14T11:17:44.583Z,6.60
2019-01-14T11:20:19.805Z,6.80
2019-01-14T11:22:47.546Z,6.90
2019-01-14T11:25:17.274Z,7.30
2019-01-14T11:27:45.138Z,7.00
2019-01-14T11:30:18.244Z,6.90
2019-01-14T11:32:46.063Z,7.10
2019-01-14T11:35:13.876Z,7.00
2019-01-14T11:37:41.738Z,7.10
2019-01-14T11:40:13.386Z,7.20
2019-01-14T11:42:41.180Z,7.30
2019-01-14T11:45:10.977Z,7.60
2019-01-14T11:47:38.760Z,7.70
2019-01-14T11:50:09.526Z,7.40
2019-01-14T11:52:37.301Z,7.40
2019-01-14T11:55:06.565Z,7.30
2019-01-14T11:57:34.348Z,7.00
2019-01-14T12:00:02.789Z,6.90
2019-01-14T12:02:30.633Z,6.80
2019-01-14T12:04:58.429Z,6.60
2019-01-14T12:07:26.288Z,6.50
2019-01-14T12:09:53.999Z,6.50
2019-01-14T12:12:21.791Z,6.50
2019-01-14T12:14:50.112Z,6.30
2019-01-14T12:17:18.320Z,6.30
2019-01-14T12:19:46.175Z,6.30
2019-01-14T12:22:14.001Z,6.40
2019-01-14T12:24:41.837Z,6.40
2019-01-14T12:27:09.692Z,6.60
2019-01-14T12:29:37.607Z,6.50
2019-01-14T12:32:05.409Z,6.30
2019-01-14T12:34:37.929Z,7.90
2019-01-14T12:37:08.367Z,8.50
2019-01-14T12:39:36.182Z,8.40
2019-01-14T12:42:04.087Z,8.70
2019-01-14T12:44:31.950Z,9.10
2019-01-14T12:46:59.816Z,8.50
2019-01-14T12:49:27.598Z,8.60
2019-01-14T12:51:55.349Z,8.60
2019-01-14T12:54:23.136Z,8.10
2019-01-14T12:56:58.789Z,8.20
2019-01-14T12:59:26.600Z,7.80
2019-01-14T13:01:56.003Z,7.40
2019-01-14T13:04:23.802Z,7.60
2019-01-14T13:06:56.696Z,7.40
2019-01-14T13:09:26.854Z,7.30
2019-01-14T13:11:54.180Z,7.70
2019-01-14T13:14:21.948Z,7.80
2019-01-14T13:16:49.748Z,8.00
2019-01-14T13:19:17.549Z,8.30
2019-01-14T13:21:45.333Z,8.70
2019-01-14T13:24:13.142Z,8.70
2019-01-14T13:26:46.004Z,9.60
2019-01-14T13:29:15.219Z,10.00
2019-01-14T13:31:43.268Z,9.60
2019-01-14T13:34:11.098Z,10.00
2019-01-14T13:36:44.015Z,9.70
2019-01-14T13:39:11.973Z,9.90
2019-01-14T13:41:39.792Z,9.90
2019-01-14T13:44:07.586Z,9.90
2019-01-14T13:46:35.370Z,9.70
2019-01-14T13:49:03.199Z,9.50
2019-01-14T13:51:31.135Z,9.60
2019-01-14T13:53:58.997Z,9.00
2019-01-14T13:56:27.109Z,8.20
2019-01-14T13:58:55.522Z,8.20
2019-01-14T14:01:23.656Z,7.70
2019-01-14T14:03:51.620Z,7.40
2019-01-14T14:06:19.491Z,7.30
2019-01-14T14:08:47.800Z,7.10
2019-01-14T14:11:16.407Z,7.00
2019-01-14T14:13:44.223Z,6.90
2019-01-14T14:16:12.050Z,6.90
2019-01-14T14:18:39.967Z,6.80
2019-01-14T14:21:07.829Z,6.80
2019-01-14T14:23:40.468Z,6.70
2019-01-14T14:26:08.353Z,6.60
2019-01-14T14:28:36.233Z,6.60
2019-01-14T14:31:06.473Z,6.40
2019-01-14T14:33:34.292Z,6.20
2019-01-14T14:36:04.999Z,6.50
2019-01-14T14:38:34.793Z,6.20
2019-01-14T14:41:03.419Z,6.10
2019-01-14T14:43:33.515Z,5.90
2019-01-14T14:46:01.771Z,5.90
2019-01-14T14:48:52.580Z,5.80
2019-01-14T14:51:20.853Z,7.00
2019-01-14T14:53:48.657Z,5.70
2019-01-14T14:56:16.594Z,5.80
2019-01-14T14:58:44.769Z,5.80
2019-01-14T15:01:13.020Z,5.70
2019-01-14T15:03:44.225Z,5.70
2019-01-14T15:06:12.637Z,5.60
2019-01-14T15:08:40.783Z,5.50
2019-01-14T15:11:11.799Z,5.10
2019-01-14T15:13:39.984Z,5.40
2019-01-14T15:16:09.163Z,5.40
2019-01-14T15:18:43.617Z,5.20
2019-01-14T15:21:12.159Z,5.30
2019-01-14T15:23:44.431Z,5.20
2019-01-14T15:26:12.883Z,5.20
2019-01-14T15:28:41.255Z,5.20
2019-01-14T15:31:09.693Z,5.20
2019-01-14T15:33:37.938Z,5.20
2019-01-14T15:36:06.754Z,5.10
2019-01-14T15:38:35.165Z,5.10
2019-01-14T15:41:03.675Z,5.10
2019-01-14T15:43:31.991Z,5.00
2019-01-14T15:46:00.436Z,4.90
2019-01-14T15:48:28.781Z,5.30
2019-01-14T15:50:56.590Z,4.80
2019-01-14T15:53:24.597Z,4.80
2019-01-14T15:55:52.442Z,4.80
2019-01-14T15:58:20.297Z,4.70
2019-01-14T16:00:48.449Z,4.70
2019-01-14T16:03:16.295Z,4.90
2019-01-14T16:05:44.133Z,4.70
2019-01-14T16:08:12.054Z,4.70
2019-01-14T16:10:39.912Z,4.70
2019-01-14T16:13:07.772Z,4.70
2019-01-14T16:15:35.586Z,4.80
2019-01-14T16:18:06.661Z,4.80
2019-01-14T16:20:34.480Z,4.80
2019-01-14T16:23:02.881Z,4.80
2019-01-14T16:25:31.128Z,4.80
2019-01-14T16:28:04.262Z,4.90
2019-01-14T16:30:32.071Z,4.90
2019-01-14T16:32:59.936Z,5.00
2019-01-14T16:35:27.742Z,5.00
2019-01-14T16:38:00.703Z,5.10
2019-01-14T16:40:28.800Z,5.00
2019-01-14T16:42:56.655Z,5.10
2019-01-14T16:45:27.898Z,5.00
2019-01-14T16:47:55.937Z,4.80
2019-01-14T16:50:24.090Z,4.60
2019-01-14T16:52:54.390Z,4.70
2019-01-14T16:55:57.048Z,4.50
2019-01-14T16:58:31.332Z,4.50
2019-01-14T17:01:02.832Z,4.40
2019-01-14T17:03:30.618Z,4.40
2019-01-14T17:05:58.448Z,4.30
2019-01-14T17:08:31.464Z,4.20
2019-01-14T17:10:59.248Z,4.10
2019-01-14T17:13:27.068Z,3.90
2019-01-14T17:15:54.852Z,4.00
2019-01-14T17:18:22.672Z,4.00
2019-01-14T17:21:09.934Z,3.90
2019-01-14T17:23:37.735Z,4.10
2019-01-14T17:26:05.503Z,3.70
2019-01-14T17:28:48.345Z,3.80
2019-01-14T17:31:16.175Z,3.70
2019-01-14T17:33:44.008Z,3.60
2019-01-14T17:36:11.760Z,3.60
2019-01-14T17:38:44.578Z,3.60
2019-01-14T17:41:12.456Z,3.50
2019-01-14T17:43:40.247Z,3.50
2019-01-14T17:46:08.143Z,3.70
2019-01-14T17:48:46.065Z,3.40
2019-01-14T17:51:13.882Z,3.30
2019-01-14T17:53:41.683Z,3.30
2019-01-14T17:56:09.489Z,3.30
2019-01-14T17:58:37.315Z,3.30
2019-01-14T18:01:05.094Z,3.30
2019-01-14T18:03:32.985Z,3.30
2019-01-14T18:06:00.891Z,3.40
2019-01-14T18:08:29.483Z,3.30
2019-01-14T18:11:01.761Z,3.30
2019-01-14T18:13:29.498Z,3.30
2019-01-14T18:16:01.038Z,3.20
2019-01-14T18:18:29.294Z,3.20
2019-01-14T18:20:57.602Z,3.20
2019-01-14T18:23:26.258Z,3.10
2019-01-14T18:26:01.613Z,3.10
2019-01-14T18:28:31.289Z,3.10
2019-01-14T18:30:59.123Z,3.20
2019-01-14T18:33:46.433Z,3.10
2019-01-14T18:36:14.233Z,3.90
2019-01-14T18:39:06.900Z,2.60
2019-01-14T18:41:38.456Z,4.00
2019-01-14T18:44:09.104Z,2.90
2019-01-14T18:46:42.915Z,3.40
2019-01-14T18:49:11.215Z,3.30
2019-01-14T18:51:41.510Z,3.30
2019-01-14T18:54:10.612Z,3.30
2019-01-14T18:56:40.728Z,3.20
2019-01-14T18:59:08.527Z,3.30
2019-01-14T19:01:43.215Z,3.30
2019-01-14T19:04:11.230Z,3.30
2019-01-14T19:06:39.847Z,3.30
2019-01-14T19:09:08.870Z,3.90
2019-01-14T19:11:39.792Z,3.40
2019-01-14T19:14:07.951Z,3.50
2019-01-14T19:16:36.753Z,3.50
2019-01-14T19:19:04.749Z,3.50
2019-01-14T19:21:35.553Z,3.70
2019-01-14T19:24:04.096Z,3.60
2019-01-14T19:26:31.950Z,3.60
2019-01-14T19:28:59.826Z,3.70
2019-01-14T19:31:28.787Z,3.70
2019-01-14T19:33:58.076Z,3.50
2019-01-14T19:36:26.066Z,3.50
2019-01-14T19:38:59.111Z,3.40
2019-01-14T19:41:27.942Z,3.30
2019-01-14T19:43:55.968Z,3.60
2019-01-14T19:46:32.530Z,3.30
2019-01-14T19:49:01.815Z,3.30
2019-01-14T19:51:29.981Z,3.30
2019-01-14T19:53:58.658Z,3.40
2019-01-14T19:56:27.154Z,3.30
2019-01-14T19:58:55.885Z,3.60
2019-01-14T20:01:24.988Z,3.30
2019-01-14T20:03:52.940Z,3.30
2019-01-14T20:06:20.827Z,3.40
2019-01-14T20:08:48.591Z,4.00
2019-01-14T20:11:16.433Z,3.40
2019-01-14T20:13:44.284Z,3.40
2019-01-14T20:16:12.170Z,3.40
2019-01-14T20:18:45.834Z,3.30
2019-01-14T20:21:13.795Z,3.70
2019-01-14T20:23:41.643Z,3.40
2019-01-14T20:26:12.524Z,3.30
2019-01-14T20:28:50.549Z,3.40
2019-01-14T20:31:18.313Z,3.30
2019-01-14T20:33:46.322Z,3.30
2019-01-14T20:36:14.124Z,3.20
2019-01-14T20:38:42.131Z,3.30
2019-01-14T20:41:16.312Z,3.30
2019-01-14T20:43:39.832Z,3.30
2019-01-14T20:46:07.675Z,3.30
2019-01-14T20:48:35.600Z,3.30
2019-01-14T20:51:03.541Z,3.20
2019-01-14T20:53:31.361Z,3.50
2019-01-14T20:55:59.195Z,3.20
2019-01-14T20:58:27.030Z,3.10
2019-01-14T21:00:54.967Z,3.10
2019-01-14T21:03:22.844Z,3.20
2019-01-14T21:05:51.010Z,3.20
2019-01-14T21:08:18.788Z,3.30
2019-01-14T21:10:46.686Z,3.30
2019-01-14T21:13:14.500Z,3.30
2019-01-14T21:16:02.866Z,3.30
2019-01-14T21:18:31.217Z,3.70
2019-01-14T21:20:59.146Z,3.30
2019-01-14T21:23:26.980Z,3.30
2019-01-14T21:25:54.841Z,3.30
2019-01-14T21:28:22.666Z,3.20
2019-01-14T21:30:50.467Z,3.30
2019-01-14T21:33:18.618Z,3.30
2019-01-14T21:35:46.584Z,3.30
2019-01-14T21:38:14.454Z,3.40
2019-01-14T21:40:43.036Z,3.30
2019-01-14T21:43:12.201Z,3.40
2019-01-14T21:45:44.645Z,3.30
2019-01-14T21:48:17.657Z,3.30
2019-01-14T21:51:05.292Z,3.30
2019-01-14T21:53:34.679Z,3.30
2019-01-14T21:56:04.764Z,3.30
2019-01-14T21:58:32.673Z,3.50
2019-01-14T22:01:00.536Z,3.40
2019-01-14T22:03:28.434Z,3.90
2019-01-14T22:05:56.279Z,3.50
2019-01-14T22:08:24.718Z,3.10
2019-01-14T22:10:52.627Z,3.50
2019-01-14T22:13:20.431Z,3.50
2019-01-14T22:15:48.418Z,3.50
2019-01-14T22:18:16.267Z,3.50
2019-01-14T22:20:44.058Z,3.50
2019-01-14T22:23:11.945Z,3.40
2019-01-14T22:25:39.760Z,3.60
2019-01-14T22:28:13.046Z,3.50
2019-01-14T22:30:41.748Z,3.50
2019-01-14T22:33:09.805Z,3.50
2019-01-14T22:35:37.894Z,3.70
2019-01-14T22:38:10.772Z,4.00
2019-01-14T22:40:38.650Z,3.40
2019-01-14T22:43:06.378Z,3.40
2019-01-14T22:45:34.196Z,3.40
2019-01-14T22:48:02.054Z,3.40
2019-01-14T22:50:29.862Z,3.50
2019-01-14T22:52:57.632Z,3.40
2019-01-14T22:55:25.428Z,3.80
2019-01-14T22:57:53.394Z,3.60
2019-01-14T23:01:15.190Z,3.40
2019-01-14T23:03:51.643Z,3.40
2019-01-14T23:06:19.386Z,3.80
2019-01-14T23:08:47.183Z,3.50
2019-01-14T23:11:14.982Z,3.50
2019-01-14T23:13:42.793Z,3.50
2019-01-14T23:16:10.635Z,3.60
2019-01-14T23:18:38.414Z,3.70
2019-01-14T23:21:06.219Z,3.80
2019-01-14T23:23:34.014Z,3.60
2019-01-14T23:26:01.835Z,3.60
2019-01-14T23:28:29.599Z,3.60
2019-01-14T23:30:57.369Z,3.60
2019-01-14T23:33:25.174Z,3.60
2019-01-14T23:35:52.991Z,3.60
2019-01-14T23:38:20.809Z,3.60
2019-01-14T23:40:48.601Z,3.50
2019-01-14T23:43:16.410Z,3.50
2019-01-14T23:45:44.275Z,3.50
2019-01-14T23:48:12.052Z,3.50
2019-01-14T23:50:42.015Z,3.50
2019-01-14T23:53:09.795Z,3.60
2019-01-14T23:55:37.623Z,3.50
2019-01-14T23:58:05.436Z,3.50
